createdAt,value
2019-02-17T05:03:41.930Z,7.03064
2019-02-17T05:07:09.829Z,7.070923
2019-02-17T05:10:37.840Z,7.101135
2019-02-17T05:14:05.714Z,7.101135
2019-02-17T05:17:33.656Z,7.131348
2019-02-17T05:21:01.575Z,7.151489
2019-02-17T05:24:29.620Z,7.131348
2019-02-17T05:27:57.607Z,7.151489
2019-02-17T05:31:26.512Z,7.16156
2019-02-17T05:34:54.460Z,7.181702
2019-02-17T05:38:23.344Z,7.221985
2019-02-17T05:41:51.275Z,7.242126
2019-02-17T05:45:19.563Z,7.221985
2019-02-17T05:48:47.387Z,7.242126
2019-02-17T05:52:15.333Z,7.28241
2019-02-17T05:55:43.250Z,7.262268
2019-02-17T05:59:11.260Z,7.262268
2019-02-17T06:02:39.185Z,7.262268
2019-02-17T06:06:07.116Z,7.221985
2019-02-17T06:09:36.084Z,7.262268
2019-02-17T06:13:04.412Z,7.262268
2019-02-17T06:16:32.314Z,7.28241
2019-02-17T06:20:01.211Z,7.29248
2019-02-17T06:23:29.141Z,7.312622
2019-02-17T06:26:58.057Z,7.332764
2019-02-17T06:30:26.017Z,7.373047
2019-02-17T06:33:53.943Z,7.362976
2019-02-17T06:37:21.836Z,7.393188
2019-02-17T06:40:49.774Z,7.423401
2019-02-17T06:44:17.739Z,7.443542
2019-02-17T06:47:45.659Z,7.463684
2019-02-17T06:51:13.623Z,7.493896
2019-02-17T06:54:41.559Z,7.524109
2019-02-17T06:58:09.471Z,7.554321
2019-02-17T07:01:37.394Z,7.624817
2019-02-17T07:05:05.338Z,7.685242
2019-02-17T07:08:33.352Z,7.775879
2019-02-17T07:12:01.296Z,7.836304
2019-02-17T07:15:29.193Z,7.937012
2019-02-17T07:18:57.099Z,7.977295
2019-02-17T07:22:25.102Z,8.03772
2019-02-17T07:25:53.030Z,8.057861
2019-02-17T07:29:21.119Z,8.118286
2019-02-17T07:32:49.061Z,8.138428
2019-02-17T07:36:17.957Z,8.208923
2019-02-17T07:39:46.932Z,8.239136
2019-02-17T07:43:14.891Z,8.259277
2019-02-17T07:46:42.772Z,8.28949
2019-02-17T07:50:10.714Z,8.28949
2019-02-17T07:53:38.799Z,8.339844
2019-02-17T07:57:06.722Z,8.370056
2019-02-17T08:00:34.659Z,8.380127
2019-02-17T08:04:02.626Z,8.390198
2019-02-17T08:07:30.660Z,8.42041
2019-02-17T08:11:03.880Z,8.440552
2019-02-17T08:14:29.621Z,8.460693
2019-02-17T08:17:57.573Z,8.460693
2019-02-17T08:21:26.519Z,8.500977
2019-02-17T08:24:54.554Z,8.521118
2019-02-17T08:28:23.473Z,8.561401
2019-02-17T08:31:55.619Z,8.591614
2019-02-17T08:35:22.600Z,8.601685
2019-02-17T08:38:50.701Z,8.621826
2019-02-17T08:42:19.794Z,8.631897
2019-02-17T08:45:47.970Z,8.682251
2019-02-17T08:49:15.879Z,8.722534
2019-02-17T08:52:43.800Z,8.772888
2019-02-17T08:56:11.713Z,8.853455
2019-02-17T08:59:40.631Z,8.934021
2019-02-17T09:03:08.770Z,8.984375
2019-02-17T09:06:36.486Z,9.0448
2019-02-17T09:10:04.466Z,9.0448
2019-02-17T09:13:32.356Z,9.0448
2019-02-17T09:17:01.268Z,9.085083
2019-02-17T09:20:29.138Z,9.105225
2019-02-17T09:23:57.042Z,9.115295
2019-02-17T09:27:25.968Z,9.155579
2019-02-17T09:30:53.870Z,9.185791
2019-02-17T09:34:21.746Z,9.216003
2019-02-17T09:37:49.744Z,9.256287
2019-02-17T09:41:17.635Z,9.286499
2019-02-17T09:44:45.583Z,9.316711
2019-02-17T09:48:13.548Z,9.316711
2019-02-17T09:51:41.472Z,9.336853
2019-02-17T09:55:09.385Z,9.417419
2019-02-17T09:58:38.356Z,9.437561
2019-02-17T10:02:06.250Z,9.447632
2019-02-17T10:05:34.143Z,9.447632
2019-02-17T10:09:02.070Z,9.447632
2019-02-17T10:12:30.000Z,9.447632
2019-02-17T10:15:58.886Z,9.437561
2019-02-17T10:19:26.855Z,9.437561
2019-02-17T10:22:54.761Z,9.447632
2019-02-17T10:26:23.624Z,9.477844
2019-02-17T10:29:52.561Z,9.508057
2019-02-17T10:33:20.454Z,9.497986
2019-02-17T10:36:48.427Z,9.518127
2019-02-17T10:40:16.347Z,9.518127
2019-02-17T10:43:44.327Z,9.518127
2019-02-17T10:47:12.257Z,9.508057
2019-02-17T10:50:40.155Z,9.568481
2019-02-17T10:54:08.053Z,9.568481
2019-02-17T10:57:35.964Z,9.54834
2019-02-17T11:01:04.018Z,9.618835
2019-02-17T11:04:31.952Z,9.649048
2019-02-17T11:08:01.665Z,9.659119
2019-02-17T11:11:29.530Z,9.699402
2019-02-17T11:14:57.454Z,9.719543
2019-02-17T11:18:25.359Z,9.779968
2019-02-17T11:21:53.237Z,9.840393
2019-02-17T11:25:21.177Z,9.870605
2019-02-17T11:28:49.076Z,9.900818
2019-02-17T11:32:16.977Z,9.910889
2019-02-17T11:35:44.900Z,9.961243
2019-02-17T11:39:12.802Z,9.991455
2019-02-17T11:42:40.675Z,10.05188
2019-02-17T11:46:08.600Z,10.102234
2019-02-17T11:49:36.559Z,10.142517
2019-02-17T11:53:04.473Z,10.213013
2019-02-17T11:56:32.341Z,10.233154
2019-02-17T12:00:01.235Z,10.273438
2019-02-17T12:03:30.118Z,10.313721
2019-02-17T12:07:00.230Z,10.354004
2019-02-17T12:10:26.888Z,10.394287
2019-02-17T12:13:55.800Z,10.43457
2019-02-17T12:17:24.735Z,10.43457
2019-02-17T12:20:54.537Z,10.414429
2019-02-17T12:24:22.503Z,10.394287
2019-02-17T12:27:51.046Z,10.384216
2019-02-17T12:31:19.145Z,10.394287
2019-02-17T12:34:47.243Z,10.43457
2019-02-17T12:38:15.235Z,10.4245
2019-02-17T12:41:44.194Z,10.454712
2019-02-17T12:45:12.332Z,10.484924
2019-02-17T12:48:42.373Z,10.535278
2019-02-17T12:52:10.347Z,10.575562
2019-02-17T12:55:38.356Z,10.595703
2019-02-17T12:59:07.404Z,10.595703
2019-02-17T13:02:35.404Z,10.605774
2019-02-17T13:06:03.477Z,10.635986
2019-02-17T13:09:31.355Z,10.635986
2019-02-17T13:13:00.381Z,10.67627
2019-02-17T13:16:29.329Z,10.716553
2019-02-17T13:19:57.437Z,10.726624
2019-02-17T13:23:25.535Z,10.726624
2019-02-17T13:26:54.539Z,10.716553
2019-02-17T13:30:22.549Z,10.726624
2019-02-17T13:33:50.475Z,10.666199
2019-02-17T13:37:18.536Z,10.666199
2019-02-17T13:40:46.538Z,10.696411
2019-02-17T13:44:14.624Z,10.67627
2019-02-17T13:47:42.474Z,10.666199
2019-02-17T13:51:10.488Z,10.67627
2019-02-17T13:54:38.600Z,10.696411
2019-02-17T13:58:06.492Z,10.696411
2019-02-17T14:01:34.545Z,10.67627
2019-02-17T14:05:02.560Z,10.666199
2019-02-17T14:08:31.421Z,10.666199
2019-02-17T14:11:59.378Z,10.666199
2019-02-17T14:15:27.440Z,10.666199
2019-02-17T14:18:55.392Z,10.666199
2019-02-17T14:22:23.247Z,10.646057
2019-02-17T14:25:51.152Z,10.646057
2019-02-17T14:29:19.059Z,10.666199
2019-02-17T14:32:47.061Z,10.67627
2019-02-17T14:36:14.916Z,10.635986
2019-02-17T14:39:42.804Z,10.635986
2019-02-17T14:43:10.743Z,10.635986
2019-02-17T14:46:39.102Z,10.646057
2019-02-17T14:50:07.145Z,10.635986
2019-02-17T14:53:35.096Z,10.646057
2019-02-17T14:57:03.187Z,10.615845
2019-02-17T15:00:31.718Z,10.595703
2019-02-17T15:04:08.254Z,10.565491
2019-02-17T15:07:31.777Z,10.545349
2019-02-17T15:10:59.703Z,10.494995
2019-02-17T15:14:27.790Z,10.494995
2019-02-17T15:17:55.709Z,10.484924
2019-02-17T15:21:23.606Z,10.494995
2019-02-17T15:24:52.274Z,10.535278
2019-02-17T15:28:20.585Z,10.464783
2019-02-17T15:31:49.555Z,10.484924
2019-02-17T15:35:17.776Z,10.454712
2019-02-17T15:38:46.743Z,10.394287
2019-02-17T15:42:14.686Z,10.364075
2019-02-17T15:45:42.731Z,10.313721
2019-02-17T15:49:10.694Z,10.263367
2019-02-17T15:52:38.620Z,10.202942
2019-02-17T15:56:06.594Z,10.122375
2019-02-17T15:59:34.544Z,9.991455
2019-02-17T16:03:02.506Z,9.769897
2019-02-17T16:06:30.614Z,9.54834
2019-02-17T16:09:58.586Z,9.326782
2019-02-17T16:13:28.552Z,9.155579
2019-02-17T16:16:58.793Z,8.954163
2019-02-17T16:20:27.402Z,8.752747
2019-02-17T16:23:56.308Z,8.591614
2019-02-17T16:27:24.203Z,8.410339
2019-02-17T16:30:52.199Z,8.319702
2019-02-17T16:34:20.413Z,8.28949
2019-02-17T16:37:48.334Z,8.279419
2019-02-17T16:41:16.298Z,8.188782
2019-02-17T16:44:44.320Z,8.007507
2019-02-17T16:48:13.396Z,7.836304
2019-02-17T16:51:41.939Z,7.655029
2019-02-17T16:55:09.971Z,7.524109
2019-02-17T16:58:37.917Z,7.373047
2019-02-17T17:02:05.809Z,7.252197
2019-02-17T17:05:33.711Z,7.16156
2019-02-17T17:09:01.635Z,7.101135
2019-02-17T17:12:30.522Z,7.010498
2019-02-17T17:15:59.400Z,6.929932
2019-02-17T17:19:27.311Z,6.879578
2019-02-17T17:22:55.216Z,6.809082
2019-02-17T17:26:23.117Z,6.748657
2019-02-17T17:29:51.033Z,6.698303
2019-02-17T17:33:18.920Z,6.647949
2019-02-17T17:36:46.880Z,6.647949
2019-02-17T17:40:15.773Z,6.809082
2019-02-17T17:43:45.053Z,6.849365
2019-02-17T17:47:13.079Z,6.78894
2019-02-17T17:50:41.247Z,6.698303
2019-02-17T17:54:09.305Z,6.668091
2019-02-17T17:57:38.287Z,6.627808
2019-02-17T18:01:07.843Z,6.517029
2019-02-17T18:04:35.295Z,6.376038
2019-02-17T18:08:03.371Z,6.396179
2019-02-17T18:11:31.403Z,6.466675
2019-02-17T18:15:00.508Z,6.637878
2019-02-17T18:18:30.367Z,6.647949
2019-02-17T18:21:58.957Z,6.5271
2019-02-17T18:25:29.505Z,6.446533
2019-02-17T18:28:57.669Z,6.416321
2019-02-17T18:32:25.659Z,6.416321
2019-02-17T18:35:53.888Z,6.396179
2019-02-17T18:39:21.767Z,6.335754
2019-02-17T18:42:49.954Z,6.335754
2019-02-17T18:46:17.882Z,6.235046
2019-02-17T18:49:46.859Z,6.245117
2019-02-17T18:53:15.466Z,6.245117
2019-02-17T18:56:44.159Z,6.396179
2019-02-17T19:00:12.185Z,6.365967
2019-02-17T19:03:40.202Z,6.305542
2019-02-17T19:07:08.202Z,6.235046
2019-02-17T19:10:36.343Z,6.134338
2019-02-17T19:14:04.823Z,6.124268
2019-02-17T19:17:32.821Z,6.134338
2019-02-17T19:21:01.590Z,6.094055
2019-02-17T19:24:29.574Z,6.083984
2019-02-17T19:27:57.601Z,6.15448
2019-02-17T19:31:26.723Z,6.164551
2019-02-17T19:34:55.490Z,6.15448
2019-02-17T19:38:24.575Z,6.194763
2019-02-17T19:41:52.513Z,6.184692
2019-02-17T19:45:20.587Z,6.27533
2019-02-17T19:48:48.493Z,6.305542
2019-02-17T19:52:16.432Z,6.27533
2019-02-17T19:55:44.592Z,6.315613
2019-02-17T19:59:13.600Z,6.345825
2019-02-17T20:02:43.670Z,6.295471
2019-02-17T20:06:11.626Z,6.214905
2019-02-17T20:09:40.668Z,6.164551
2019-02-17T20:13:08.748Z,6.15448
2019-02-17T20:16:36.970Z,6.235046
2019-02-17T20:20:05.067Z,6.27533
2019-02-17T20:23:33.101Z,6.345825
2019-02-17T20:27:01.026Z,6.376038
2019-02-17T20:30:29.183Z,6.416321
2019-02-17T20:33:57.376Z,6.365967
2019-02-17T20:37:25.500Z,6.365967
2019-02-17T20:40:53.357Z,6.335754
2019-02-17T20:44:22.262Z,6.376038
2019-02-17T20:47:50.187Z,6.335754
2019-02-17T20:51:18.131Z,6.345825
2019-02-17T20:54:46.261Z,6.345825
2019-02-17T20:58:13.929Z,6.305542
2019-02-17T21:01:42.825Z,6.426392
2019-02-17T21:05:10.728Z,6.486816
2019-02-17T21:08:38.673Z,6.5271
2019-02-17T21:12:06.633Z,6.466675
2019-02-17T21:15:34.535Z,6.446533
2019-02-17T21:19:02.436Z,6.426392
2019-02-17T21:22:30.325Z,6.496887
2019-02-17T21:25:58.232Z,6.557312
2019-02-17T21:29:26.128Z,6.607666
2019-02-17T21:32:54.031Z,6.597595
2019-02-17T21:36:23.563Z,6.5271
2019-02-17T21:39:50.825Z,6.496887
2019-02-17T21:43:18.721Z,6.466675
2019-02-17T21:46:46.635Z,6.416321
2019-02-17T21:50:14.585Z,6.315613
2019-02-17T21:53:42.437Z,6.265259
2019-02-17T21:57:10.343Z,6.305542
2019-02-17T22:00:38.269Z,6.214905
2019-02-17T22:04:06.139Z,6.15448
2019-02-17T22:07:35.076Z,6.164551
2019-02-17T22:11:02.907Z,6.114197
2019-02-17T22:14:30.830Z,5.983276
2019-02-17T22:17:58.729Z,5.973206
2019-02-17T22:21:26.620Z,5.882568
2019-02-17T22:24:54.533Z,5.822144
2019-02-17T22:28:22.447Z,5.691223
2019-02-17T22:31:50.352Z,5.671082
2019-02-17T22:35:18.239Z,5.661011
2019-02-17T22:38:46.139Z,5.620728
2019-02-17T22:42:14.215Z,5.610657
2019-02-17T22:45:42.148Z,5.550232
2019-02-17T22:49:10.081Z,5.509949
2019-02-17T22:52:37.970Z,5.429382
2019-02-17T22:56:05.849Z,5.368958
2019-02-17T22:59:33.762Z,5.318604
